createdAt,value
2023-02-05T00:00:52.274Z,57461.54
2023-02-05T00:01:55.250Z,57144.55
2023-02-05T00:02:58.331Z,57431.45
2023-02-05T00:04:01.071Z,59712.29
2023-02-05T00:05:04.586Z,59952.19
2023-02-05T00:06:07.508Z,59323.86
2023-02-05T00:07:10.300Z,59610.91
2023-02-05T00:08:13.387Z,60097.74
2023-02-05T00:09:19.528Z,59592.84
2023-02-05T00:10:22.559Z,61401.94
2023-02-05T00:11:25.771Z,59685.18
2023-02-05T00:12:28.862Z,58925.43
2023-02-05T00:13:31.834Z,58483.90
2023-02-05T00:14:34.503Z,58696.63
2023-02-05T00:15:37.699Z,59491.47
2023-02-05T00:16:40.646Z,58724.73
2023-02-05T00:17:43.528Z,59614.93
2023-02-05T00:18:46.597Z,58948.52
2023-02-05T00:19:49.398Z,58997.69
2023-02-05T00:20:52.489Z,59536.64
2023-02-05T00:21:55.365Z,60268.39
2023-02-05T00:22:57.903Z,58745.80
2023-02-05T00:24:00.772Z,59416.20
2023-02-05T00:25:03.759Z,60090.71
2023-02-05T00:26:06.846Z,62374.09
2023-02-05T00:27:09.558Z,64224.64
2023-02-05T00:28:12.641Z,65896.09
2023-02-05T00:29:15.452Z,66107.22
2023-02-05T00:30:18.637Z,64588.42
2023-02-05T00:31:21.943Z,61881.96
2023-02-05T00:32:25.418Z,64176.41
2023-02-05T00:33:28.392Z,64157.31
2023-02-05T00:34:31.531Z,64749.22
2023-02-05T00:35:34.943Z,64692.94
2023-02-05T00:36:38.347Z,65710.13
2023-02-05T00:37:41.646Z,63780.51
2023-02-05T00:38:44.709Z,62745.73
2023-02-05T00:39:47.700Z,63338.44
2023-02-05T00:40:50.564Z,60814.54
2023-02-05T00:41:53.949Z,64047.79
2023-02-05T00:42:56.743Z,65292.96
2023-02-05T00:43:59.820Z,65565.38
2023-02-05T00:45:02.889Z,65444.75
2023-02-05T00:46:06.051Z,66537.53
2023-02-05T00:47:09.472Z,65992.61
2023-02-05T00:48:12.677Z,67559.21
2023-02-05T00:49:16.025Z,67068.45
2023-02-05T00:50:18.904Z,66715.50
2023-02-05T00:51:21.897Z,65468.87
2023-02-05T00:52:25.193Z,65146.22
2023-02-05T00:53:28.229Z,65092.95
2023-02-05T00:54:31.435Z,65240.70
2023-02-05T00:55:34.808Z,64755.25
2023-02-05T00:56:37.888Z,64841.68
2023-02-05T00:57:41.270Z,64706.00
2023-02-05T00:58:44.473Z,65272.86
2023-02-05T00:59:47.947Z,65392.48
2023-02-05T01:00:51.366Z,64479.89
2023-02-05T01:01:54.412Z,64614.55
2023-02-05T01:02:57.701Z,64317.09
2023-02-05T01:04:01.113Z,64699.98
2023-02-05T01:05:04.482Z,65603.57
2023-02-05T01:06:07.853Z,65195.47
2023-02-05T01:07:11.192Z,65029.63
2023-02-05T01:08:14.936Z,65140.19
2023-02-05T01:09:17.905Z,66291.20
2023-02-05T01:10:21.095Z,66741.65
2023-02-05T01:11:24.069Z,66598.87
2023-02-05T01:12:26.956Z,66820.08
2023-02-05T01:13:30.356Z,67144.88
2023-02-05T01:14:33.410Z,67482.78
2023-02-05T01:15:37.092Z,67519.98
2023-02-05T01:16:40.289Z,67176.05
2023-02-05T01:17:43.596Z,64483.91
2023-02-05T01:18:47.060Z,64625.61
2023-02-05T01:19:49.941Z,64612.54
2023-02-05T01:20:53.016Z,65010.53
2023-02-05T01:21:56.093Z,64775.35
2023-02-05T01:22:59.278Z,65264.82
2023-02-05T01:24:02.654Z,65429.67
2023-02-05T01:25:05.843Z,65496.01
2023-02-05T01:26:08.934Z,65953.41
2023-02-05T01:27:12.005Z,65254.77
2023-02-05T01:28:15.066Z,66361.58
2023-02-05T01:29:18.365Z,65808.64
2023-02-05T01:30:21.462Z,64812.54
2023-02-05T01:31:24.766Z,65915.20
2023-02-05T01:32:28.000Z,65932.30
2023-02-05T01:33:31.088Z,64446.72
2023-02-05T01:34:34.539Z,65483.95
2023-02-05T01:35:37.499Z,66492.28
2023-02-05T01:36:40.631Z,66209.77
2023-02-05T01:37:43.408Z,65202.50
2023-02-05T01:38:46.280Z,64723.09
2023-02-05T01:39:49.307Z,64758.27
2023-02-05T01:40:52.131Z,64054.82
2023-02-05T01:41:55.001Z,62736.70
2023-02-05T01:42:58.007Z,64123.15
2023-02-05T01:44:01.277Z,65701.08
2023-02-05T01:45:04.046Z,65312.07
2023-02-05T01:46:07.150Z,65470.88
2023-02-05T01:47:09.992Z,66344.48
2023-02-05T01:48:12.928Z,66711.48
2023-02-05T01:49:16.025Z,66128.33
2023-02-05T01:50:19.532Z,66599.88
2023-02-05T01:51:22.511Z,65595.53
2023-02-05T01:52:25.695Z,65420.62
2023-02-05T01:53:28.582Z,64751.23
2023-02-05T01:54:31.950Z,64143.25
2023-02-05T01:55:35.694Z,64395.47
2023-02-05T01:56:39.148Z,65366.34
2023-02-05T01:57:42.212Z,65234.67
2023-02-05T01:58:45.596Z,65456.81
2023-02-05T01:59:48.602Z,64738.16
2023-02-05T04:04:13.354Z,44451.78
2023-02-05T04:05:16.634Z,54772.96
2023-02-05T04:06:19.834Z,55687.34
2023-02-05T04:07:23.114Z,58188.91
2023-02-05T04:08:26.448Z,59504.52
2023-02-05T04:09:29.564Z,59694.22
2023-02-05T04:10:32.894Z,61463.19
2023-02-05T04:11:35.834Z,63300.26
2023-02-05T04:12:38.910Z,61761.45
2023-02-05T04:13:42.007Z,60235.27
2023-02-05T04:14:45.177Z,57523.74
2023-02-05T04:15:48.151Z,58193.92
2023-02-05T04:16:51.123Z,61515.41
2023-02-05T04:17:54.128Z,61319.59
2023-02-05T04:18:57.179Z,60909.93
2023-02-05T04:20:00.104Z,60772.37
2023-02-05T04:21:02.948Z,63719.22
2023-02-05T04:22:06.228Z,60556.52
2023-02-05T04:23:09.224Z,59466.38
2023-02-05T04:24:12.539Z,58970.59
2023-02-05T04:25:15.767Z,59174.32
2023-02-05T04:26:18.751Z,55500.83
2023-02-05T04:27:21.824Z,55902.93
2023-02-05T04:28:24.699Z,57353.20
2023-02-05T04:29:27.891Z,56797.50
2023-02-05T04:30:30.983Z,56070.39
2023-02-05T04:31:33.759Z,56145.60
2023-02-05T04:32:36.919Z,56812.55
2023-02-05T04:33:39.904Z,58660.51
2023-02-05T04:34:43.204Z,58731.76
2023-02-05T04:35:46.591Z,60807.52
2023-02-05T04:36:49.454Z,62129.02
2023-02-05T04:37:52.536Z,61090.66
2023-02-05T04:38:55.495Z,62998.88
2023-02-05T04:39:58.490Z,63136.51
2023-02-05T04:41:01.343Z,64116.11
2023-02-05T04:42:04.429Z,59538.64
2023-02-05T04:43:07.301Z,57313.07
2023-02-05T04:44:10.285Z,54800.02
2023-02-05T04:45:13.395Z,51423.05
2023-02-05T04:46:16.682Z,55251.17
2023-02-05T04:47:19.815Z,54810.05
2023-02-05T04:48:23.035Z,55700.37
2023-02-05T04:49:26.203Z,58482.90
2023-02-05T04:50:29.073Z,53512.03
2023-02-05T04:51:32.972Z,54742.88
2023-02-05T04:52:35.774Z,54303.82
2023-02-05T04:53:38.761Z,56279.98
2023-02-05T04:54:41.689Z,57970.18
2023-02-05T04:55:44.825Z,59508.54
2023-02-05T04:56:48.305Z,60085.70
2023-02-05T04:57:52.734Z,58378.54
2023-02-05T04:58:56.077Z,56363.23
2023-02-05T04:59:59.251Z,56911.84
2023-02-05T05:01:02.258Z,55202.05
2023-02-05T05:02:05.533Z,50461.60
2023-02-05T05:03:08.348Z,50166.20
2023-02-05T05:04:11.368Z,52399.78
2023-02-05T05:05:14.525Z,55538.93
2023-02-05T05:06:17.355Z,54396.04
2023-02-05T05:07:20.393Z,56325.11
2023-02-05T05:08:23.264Z,58091.58
2023-02-05T05:09:26.022Z,58411.66
2023-02-05T05:10:29.021Z,56129.56
2023-02-05T05:11:31.672Z,52496.96
2023-02-05T05:12:34.959Z,51509.20
2023-02-05T05:13:37.619Z,50501.65
2023-02-05T05:14:40.500Z,49706.62
2023-02-05T05:15:43.508Z,51609.36
2023-02-05T05:16:46.357Z,53749.55
2023-02-05T05:17:49.635Z,55195.03
2023-02-05T05:18:52.737Z,59673.14
2023-02-05T05:19:55.701Z,56095.46
2023-02-05T05:20:58.774Z,57901.96
2023-02-05T05:22:01.764Z,56586.87
2023-02-05T05:23:04.726Z,57569.89
2023-02-05T05:24:07.897Z,57926.04
2023-02-05T05:25:10.893Z,59661.10
2023-02-05T05:26:13.882Z,61998.46
2023-02-05T05:27:16.758Z,60104.77
2023-02-05T05:28:19.810Z,55971.11
2023-02-05T05:29:22.801Z,60914.95
2023-02-05T05:30:25.764Z,62536.80
2023-02-05T05:31:29.052Z,64152.29
2023-02-05T05:32:31.937Z,63666.97
2023-02-05T05:33:35.419Z,62571.96
2023-02-05T05:34:39.539Z,61998.46
2023-02-05T05:35:42.608Z,61973.35
2023-02-05T05:36:45.677Z,56521.68
2023-02-05T05:37:48.475Z,55426.63
2023-02-05T05:38:51.341Z,58974.61
2023-02-05T05:39:54.092Z,58375.54
2023-02-05T05:40:56.835Z,57875.87
2023-02-05T05:41:59.640Z,59956.20
2023-02-05T05:43:02.323Z,59245.58
2023-02-05T05:44:05.200Z,62026.58
2023-02-05T05:45:07.959Z,60091.72
2023-02-05T05:46:10.911Z,59297.77
2023-02-05T05:47:13.617Z,59543.66
2023-02-05T05:48:16.495Z,61247.30
2023-02-05T05:49:19.674Z,61488.30
2023-02-05T05:50:22.534Z,62297.75
2023-02-05T05:51:25.670Z,63207.83
2023-02-05T05:52:29.792Z,62932.58
2023-02-05T05:53:33.117Z,60448.09
2023-02-05T05:54:36.511Z,57601.99
2023-02-05T05:55:39.366Z,56059.36
2023-02-05T05:56:42.408Z,55337.40
2023-02-05T05:57:45.558Z,57501.67
2023-02-05T05:58:48.907Z,59283.71
2023-02-05T05:59:52.087Z,58760.86
2023-02-05T06:00:55.163Z,59604.89
2023-02-05T06:01:58.246Z,58585.25
2023-02-05T06:03:01.434Z,58303.29
2023-02-05T06:04:04.536Z,60634.83
2023-02-05T06:05:07.592Z,61355.75
2023-02-05T06:06:10.693Z,61327.63
2023-02-05T06:07:13.554Z,60960.13
2023-02-05T06:08:16.563Z,60269.40
2023-02-05T06:09:19.814Z,61514.40
2023-02-05T06:10:23.193Z,63202.81
2023-02-05T06:11:26.269Z,64268.86
2023-02-05T06:12:29.064Z,63936.25
2023-02-05T06:13:32.015Z,63702.14
2023-02-05T06:14:34.989Z,61877.94
2023-02-05T06:15:38.332Z,61587.71
2023-02-05T06:16:41.517Z,61883.96
2023-02-05T06:17:44.569Z,60298.51
2023-02-05T06:18:47.622Z,57439.47
2023-02-05T06:19:50.730Z,59380.06
2023-02-05T06:20:54.062Z,58005.30
2023-02-05T06:21:57.087Z,59731.36
2023-02-05T06:23:05.892Z,59318.84
2023-02-05T06:24:08.768Z,57753.48
2023-02-05T06:25:11.740Z,56727.29
2023-02-05T06:26:15.031Z,53128.21
2023-02-05T06:27:17.792Z,53894.88
2023-02-05T06:28:20.673Z,55147.91
2023-02-05T06:29:23.350Z,56330.13
2023-02-05T06:30:26.221Z,59263.64
2023-02-05T06:31:29.138Z,60667.96
2023-02-05T06:32:31.961Z,59437.27
2023-02-05T06:33:34.746Z,58724.73
2023-02-05T06:34:37.923Z,58756.84
2023-02-05T06:35:40.692Z,56797.50
2023-02-05T06:36:43.789Z,56722.28
2023-02-05T06:37:47.735Z,57072.33
2023-02-05T06:38:51.179Z,58676.57
2023-02-05T06:39:54.466Z,57549.82
2023-02-05T06:40:57.519Z,55626.17
2023-02-05T06:42:01.110Z,56340.16
2023-02-05T06:43:04.203Z,54971.46
2023-02-05T06:44:07.172Z,56422.39
2023-02-05T06:45:09.870Z,59585.82
2023-02-05T06:46:12.535Z,71665.66
2023-02-05T06:47:15.383Z,85315.30
2023-02-05T06:48:17.979Z,95496.67
2023-02-05T06:49:20.628Z,97830.70
2023-02-05T06:50:23.491Z,102243.08
2023-02-05T06:51:26.285Z,104321.16
2023-02-05T06:52:29.344Z,106530.28
2023-02-05T06:53:32.225Z,108480.50
2023-02-05T06:54:34.883Z,108870.66
2023-02-05T06:55:37.680Z,108220.42
2023-02-05T06:56:40.328Z,108220.42
2023-02-05T06:57:43.516Z,108480.50
2023-02-05T06:58:46.693Z,113815.89
2023-02-05T06:59:49.724Z,114206.55
2023-02-05T07:00:52.856Z,112253.59
2023-02-05T07:01:55.670Z,111342.52
2023-02-05T07:02:59.174Z,103541.75
2023-02-05T07:04:02.413Z,87843.57
2023-02-05T07:05:05.522Z,88397.54
2023-02-05T07:06:08.677Z,81215.02
2023-02-05T07:07:11.659Z,64013.62
2023-02-05T07:08:14.639Z,71402.91
2023-02-05T07:09:17.596Z,80613.61
2023-02-05T07:10:20.336Z,76779.20
2023-02-05T07:11:23.244Z,68970.48
2023-02-05T07:12:26.141Z,65523.15
2023-02-05T07:13:29.097Z,77115.91
2023-02-05T07:14:32.074Z,72743.03
2023-02-05T07:15:35.376Z,74808.97
2023-02-05T07:16:38.550Z,81278.59
2023-02-05T07:17:41.410Z,95755.94
2023-02-05T07:18:45.256Z,107960.35
2023-02-05T07:19:48.282Z,102243.08
2023-02-05T07:20:51.280Z,100815.02
2023-02-05T07:21:54.139Z,102113.23
2023-02-05T07:22:57.122Z,103152.11
2023-02-05T07:24:00.186Z,99517.22
2023-02-05T07:25:04.606Z,100555.42
2023-02-05T07:26:07.795Z,102372.93
2023-02-05T07:27:10.817Z,103281.98
2023-02-05T07:28:13.795Z,106790.25
2023-02-05T07:29:17.441Z,110171.45
2023-02-05T07:30:20.408Z,112774.28
2023-02-05T07:31:23.532Z,113685.67
2023-02-05T07:32:27.497Z,113685.67
2023-02-05T07:33:30.966Z,116551.34
2023-02-05T07:34:33.873Z,116943.30
2023-02-05T07:35:36.868Z,116943.30
2023-02-05T07:36:39.608Z,116943.30
2023-02-05T07:37:42.487Z,115248.52
2023-02-05T07:38:45.250Z,113946.10
2023-02-05T07:39:48.550Z,111732.95
2023-02-05T07:40:51.635Z,104061.34
2023-02-05T07:41:55.022Z,93135.66
2023-02-05T07:42:57.679Z,85248.62
2023-02-05T07:44:00.749Z,71384.78
2023-02-05T07:45:03.716Z,69597.31
2023-02-05T07:46:07.718Z,78951.11
2023-02-05T07:47:11.177Z,84009.34
2023-02-05T07:48:14.105Z,78163.48
2023-02-05T07:49:17.175Z,84053.77
2023-02-05T07:50:20.160Z,87830.43
2023-02-05T07:51:23.222Z,90594.95
2023-02-05T07:52:26.231Z,91956.67
2023-02-05T07:53:29.514Z,101983.39
2023-02-05T07:54:32.585Z,102632.64
2023-02-05T07:55:35.898Z,110301.56
2023-02-05T07:56:39.032Z,110952.13
2023-02-05T07:57:42.047Z,112253.59
2023-02-05T07:58:45.094Z,111602.80
2023-02-05T07:59:47.990Z,112123.42
2023-02-05T08:00:51.177Z,115639.32
2023-02-05T08:01:54.079Z,116551.34
2023-02-05T08:02:57.112Z,114988.00
2023-02-05T08:04:00.666Z,111863.11
2023-02-05T08:05:03.453Z,107570.28
2023-02-05T08:06:06.549Z,101464.08
2023-02-05T08:07:09.247Z,104191.25
2023-02-05T08:08:12.155Z,104191.25
2023-02-05T08:09:15.378Z,110561.77
2023-02-05T08:10:18.068Z,112123.42
2023-02-05T08:11:21.751Z,114076.33
2023-02-05T08:12:24.566Z,115509.05
2023-02-05T08:13:27.688Z,114597.26
2023-02-05T08:14:30.768Z,111863.11
2023-02-05T08:15:34.227Z,114076.33
2023-02-05T08:16:37.388Z,116160.45
2023-02-05T08:17:40.427Z,116681.65
2023-02-05T08:18:43.601Z,116943.30
2023-02-05T08:19:46.602Z,116943.30
2023-02-05T08:20:49.664Z,116943.30
2023-02-05T08:21:52.858Z,116943.30
2023-02-05T08:22:55.838Z,116943.30
2023-02-05T08:23:59.235Z,116551.34
2023-02-05T08:25:02.438Z,116681.65
2023-02-05T08:26:05.468Z,116943.30
2023-02-05T08:27:08.553Z,116943.30
2023-02-05T08:28:11.490Z,116943.30
2023-02-05T08:29:14.609Z,116943.30
2023-02-05T08:30:17.699Z,116943.30
2023-02-05T08:31:20.585Z,116943.30
2023-02-05T08:32:23.731Z,116943.30
2023-02-05T08:33:26.826Z,116943.30
2023-02-05T08:34:29.817Z,116943.30
2023-02-05T08:35:34.255Z,116943.30
2023-02-05T08:36:37.280Z,116943.30
2023-02-05T08:37:40.355Z,116943.30
2023-02-05T08:38:43.335Z,116943.30
2023-02-05T08:39:46.361Z,116943.30
2023-02-05T08:40:49.601Z,116943.30
2023-02-05T08:41:52.377Z,116943.30
2023-02-05T08:42:55.472Z,116943.30
2023-02-05T08:43:58.641Z,116943.30
2023-02-05T08:45:01.728Z,116943.30
2023-02-05T08:46:04.650Z,116943.30
2023-02-05T08:47:07.715Z,116943.30
2023-02-05T08:48:10.944Z,116943.30
2023-02-05T08:49:14.133Z,116943.30
2023-02-05T08:50:17.202Z,116943.30
2023-02-05T08:51:20.211Z,116943.30
2023-02-05T08:59:46.152Z,116943.30
2023-02-05T09:00:49.147Z,116943.30
2023-02-05T09:01:52.106Z,116943.30
2023-02-05T09:02:54.986Z,116943.30
2023-02-05T09:03:57.750Z,116943.30
2023-02-05T09:05:08.529Z,116943.30
2023-02-05T09:06:05.246Z,116943.30
2023-02-05T09:07:08.030Z,116943.30
2023-02-05T09:08:10.889Z,116943.30
2023-02-05T09:09:13.862Z,116943.30
2023-02-05T09:10:16.600Z,116943.30
2023-02-05T09:11:19.417Z,116943.30
2023-02-05T09:12:22.182Z,116943.30
2023-02-05T09:13:24.847Z,116943.30
2023-02-05T09:14:27.524Z,116943.30
2023-02-05T09:15:30.188Z,116943.30
2023-02-05T09:16:32.787Z,116943.30
2023-02-05T09:17:35.735Z,116943.30
2023-02-05T09:18:38.608Z,116943.30
2023-02-05T09:19:41.324Z,116943.30
2023-02-05T09:20:44.252Z,116943.30
2023-02-05T09:21:47.052Z,116943.30
2023-02-05T09:22:49.957Z,116943.30
2023-02-05T09:23:52.895Z,116943.30
2023-02-05T09:24:55.759Z,116943.30
2023-02-05T09:25:58.535Z,116943.30
2023-02-05T09:27:01.823Z,116943.30
2023-02-05T09:28:04.853Z,116943.30
2023-02-05T09:29:07.799Z,116943.30
2023-02-05T09:30:10.669Z,116943.30
2023-02-05T09:31:13.801Z,116943.30
2023-02-05T09:32:17.004Z,116943.30
2023-02-05T09:33:19.887Z,116943.30
2023-02-05T09:34:22.954Z,116943.30
2023-02-05T09:35:25.857Z,116943.30
2023-02-05T09:36:28.715Z,116943.30
2023-02-05T09:37:31.482Z,116943.30
2023-02-05T09:38:34.460Z,116943.30
2023-02-05T09:40:18.500Z,116943.30
2023-02-05T09:40:41.650Z,116943.30
2023-02-05T09:41:44.745Z,116943.30
2023-02-05T09:42:47.639Z,116943.30
2023-02-05T09:43:50.493Z,116943.30
2023-02-05T09:44:53.362Z,116943.30
2023-02-05T09:45:56.747Z,116943.30
2023-02-05T09:46:59.510Z,116943.30
2023-02-05T09:48:02.591Z,116943.30
2023-02-05T09:49:05.570Z,116943.30
2023-02-05T09:50:08.447Z,116943.30
2023-02-05T09:51:11.241Z,116943.30
2023-02-05T09:52:13.977Z,116943.30
2023-02-05T09:53:16.969Z,116943.30
2023-02-05T09:54:19.645Z,116943.30
2023-02-05T09:55:22.699Z,116943.30
2023-02-05T09:56:25.592Z,116943.30
2023-02-05T09:57:28.905Z,116943.30
2023-02-05T09:58:31.948Z,116943.30
2023-02-05T09:59:34.731Z,116943.30
2023-02-05T10:00:37.288Z,116943.30
2023-02-05T10:01:40.124Z,116943.30
2023-02-05T10:02:43.042Z,116943.30
2023-02-05T10:03:46.126Z,116943.30
2023-02-05T10:04:48.897Z,116943.30
2023-02-05T10:05:51.665Z,116943.30
2023-02-05T10:06:54.755Z,116943.30
2023-02-05T10:07:57.556Z,116943.30
2023-02-05T10:09:00.595Z,116943.30
2023-02-05T10:10:03.475Z,116943.30
2023-02-05T10:11:06.450Z,116943.30
2023-02-05T10:12:09.429Z,116943.30
2023-02-05T10:13:12.227Z,116943.30
2023-02-05T10:14:14.957Z,116943.30
2023-02-05T10:15:17.986Z,116943.30
2023-02-05T10:16:20.973Z,116943.30
2023-02-05T10:17:23.787Z,116943.30
2023-02-05T10:18:26.771Z,116943.30
2023-02-05T10:19:29.351Z,116943.30
2023-02-05T10:20:31.909Z,116943.30
2023-02-05T10:21:34.980Z,116943.30
2023-02-05T10:22:37.869Z,116943.30
2023-02-05T10:23:40.783Z,116943.30
2023-02-05T10:24:43.611Z,116943.30
2023-02-05T10:25:46.690Z,116943.30
2023-02-05T10:26:49.654Z,116943.30
2023-02-05T10:27:52.576Z,116943.30
2023-02-05T10:28:55.816Z,116943.30
2023-02-05T10:29:58.500Z,116943.30
2023-02-05T10:31:01.178Z,116943.30
2023-02-05T10:32:03.728Z,116943.30
2023-02-05T10:33:06.508Z,116943.30
2023-02-05T10:34:09.372Z,116943.30
2023-02-05T10:35:12.247Z,116943.30
2023-02-05T10:36:15.435Z,116943.30
2023-02-05T10:37:18.227Z,116943.30
2023-02-05T10:38:20.875Z,116943.30
2023-02-05T10:39:23.650Z,116943.30
2023-02-05T10:40:26.416Z,116943.30
2023-02-05T10:41:29.187Z,116943.30
2023-02-05T10:42:31.867Z,116943.30
2023-02-05T10:43:34.570Z,116943.30
2023-02-05T10:44:37.193Z,116943.30
2023-02-05T10:45:39.916Z,116943.30
2023-02-05T10:46:42.592Z,116943.30
2023-02-05T10:47:45.311Z,116943.30
2023-02-05T10:48:47.893Z,116943.30
2023-02-05T10:49:50.657Z,116943.30
2023-02-05T10:50:53.314Z,116943.30
2023-02-05T10:51:56.107Z,116943.30
2023-02-05T10:52:58.769Z,116943.30
2023-02-05T10:54:01.537Z,116943.30
2023-02-05T10:55:04.110Z,116943.30
2023-02-05T10:56:06.804Z,116943.30
2023-02-05T10:57:09.438Z,116943.30
2023-02-05T10:58:12.433Z,116943.30
2023-02-05T10:59:15.299Z,116943.30
2023-02-05T11:00:18.601Z,116943.30
2023-02-05T11:01:21.510Z,116943.30
2023-02-05T11:02:24.453Z,116943.30
2023-02-05T11:03:27.408Z,116943.30
2023-02-05T11:04:30.312Z,116943.30
2023-02-05T11:05:33.405Z,116943.30
2023-02-05T11:06:36.429Z,116943.30
2023-02-05T11:07:39.309Z,116943.30
2023-02-05T11:08:42.317Z,116943.30
2023-02-05T11:09:45.056Z,116943.30
2023-02-05T11:10:48.354Z,116943.30
2023-02-05T11:11:51.214Z,116943.30
2023-02-05T11:12:53.998Z,116943.30
2023-02-05T11:13:56.767Z,116943.30
2023-02-05T11:14:59.334Z,116943.30
2023-02-05T11:16:02.359Z,116943.30
2023-02-05T11:17:05.177Z,116943.30
2023-02-05T11:18:08.060Z,116943.30
2023-02-05T11:19:10.932Z,116943.30
2023-02-05T11:20:13.809Z,116943.30
2023-02-05T11:21:16.668Z,116943.30
2023-02-05T11:22:19.554Z,116943.30
2023-02-05T11:23:22.330Z,116943.30
2023-02-05T11:24:25.211Z,116943.30
2023-02-05T11:25:29.815Z,116943.30
2023-02-05T11:26:32.688Z,116943.30
2023-02-05T11:27:35.464Z,116943.30
2023-02-05T11:28:38.451Z,116943.30
2023-02-05T11:29:41.213Z,116943.30
2023-02-05T11:30:52.364Z,116943.30
2023-02-05T11:31:48.654Z,116943.30
2023-02-05T11:32:51.631Z,116943.30
2023-02-05T11:33:54.449Z,116943.30
2023-02-05T11:34:57.425Z,116943.30
2023-02-05T11:36:00.306Z,116943.30
2023-02-05T11:37:03.090Z,116943.30
2023-02-05T11:38:06.725Z,116943.30
2023-02-05T11:39:09.740Z,116943.30
2023-02-05T11:40:12.772Z,116943.30
2023-02-05T11:41:15.659Z,116943.30
2023-02-05T11:42:18.781Z,116943.30
2023-02-05T11:43:21.773Z,116943.30
2023-02-05T11:44:24.531Z,116943.30
2023-02-05T11:45:27.311Z,116943.30
2023-02-05T11:46:30.059Z,116943.30
2023-02-05T11:47:32.644Z,116943.30
2023-02-05T11:48:35.351Z,116943.30
2023-02-05T11:49:37.944Z,116943.30
2023-02-05T11:50:40.554Z,116943.30
2023-02-05T11:51:43.119Z,116943.30
2023-02-05T11:52:45.890Z,116943.30
2023-02-05T11:53:48.777Z,116943.30
2023-02-05T11:54:51.558Z,116943.30
2023-02-05T11:55:54.306Z,116943.30
2023-02-05T11:56:57.193Z,116943.30
2023-02-05T11:58:00.372Z,116943.30
2023-02-05T11:59:04.633Z,116943.30
2023-02-05T12:00:07.391Z,116943.30
2023-02-05T12:01:10.192Z,116943.30
2023-02-05T12:02:13.110Z,116943.30
2023-02-05T12:03:16.427Z,116943.30
2023-02-05T12:04:19.268Z,116943.30
2023-02-05T12:05:22.256Z,116943.30
2023-02-05T12:06:25.320Z,116943.30
2023-02-05T12:07:28.456Z,116943.30
2023-02-05T12:08:31.272Z,116943.30
2023-02-05T12:09:34.350Z,116943.30
2023-02-05T12:10:37.745Z,116943.30
2023-02-05T12:11:40.621Z,116943.30
2023-02-05T12:12:43.512Z,116943.30
2023-02-05T12:13:46.489Z,116943.30
2023-02-05T12:14:50.977Z,116943.30
2023-02-05T12:15:53.776Z,116943.30
2023-02-05T12:16:56.828Z,116943.30
2023-02-05T12:17:59.394Z,116943.30
2023-02-05T12:19:02.166Z,116943.30
2023-02-05T12:20:04.844Z,116943.30
2023-02-05T12:21:07.712Z,116943.30
2023-02-05T12:22:10.786Z,116943.30
2023-02-05T12:23:13.674Z,116943.30
2023-02-05T12:24:16.551Z,116943.30
2023-02-05T12:25:19.418Z,116943.30
2023-02-05T12:26:22.277Z,116943.30
2023-02-05T12:27:25.265Z,116943.30
2023-02-05T12:28:28.171Z,116943.30
2023-02-05T12:29:31.420Z,116943.30
2023-02-05T12:30:34.100Z,116943.30
2023-02-05T12:31:37.009Z,116943.30
2023-02-05T12:32:39.936Z,116943.30
2023-02-05T12:33:42.816Z,116943.30
2023-02-05T12:34:46.100Z,116943.30
2023-02-05T12:35:48.867Z,116943.30
2023-02-05T12:36:51.748Z,116943.30
2023-02-05T12:37:54.612Z,116943.30
2023-02-05T12:38:57.489Z,116943.30
2023-02-05T12:40:00.589Z,116943.30
2023-02-05T12:41:03.448Z,116943.30
2023-02-05T12:42:06.418Z,116943.30
2023-02-05T12:43:09.295Z,116943.30
2023-02-05T12:44:12.180Z,116943.30
2023-02-05T12:45:15.278Z,116943.30
2023-02-05T12:46:18.082Z,116943.30
2023-02-05T12:47:21.213Z,116943.30
2023-02-05T12:48:24.294Z,116943.30
2023-02-05T12:49:27.069Z,116943.30
2023-02-05T12:50:30.133Z,116943.30
2023-02-05T12:51:33.025Z,116943.30
2023-02-05T12:52:35.885Z,116943.30
2023-02-05T12:53:39.175Z,116943.30
2023-02-05T12:54:42.053Z,116943.30
2023-02-05T12:55:45.015Z,116943.30
2023-02-05T12:56:48.087Z,116943.30
2023-02-05T12:57:50.569Z,116943.30
2023-02-05T12:58:53.445Z,116943.30
2023-02-05T12:59:56.351Z,116943.30
2023-02-05T13:00:59.227Z,116943.30
2023-02-05T13:02:02.074Z,116943.30
2023-02-05T13:03:04.810Z,116943.30
2023-02-05T13:04:07.845Z,116943.30
2023-02-05T13:05:10.791Z,116943.30
2023-02-05T13:06:13.869Z,116943.30
2023-02-05T13:07:16.857Z,116943.30
2023-02-05T13:08:19.738Z,116943.30
2023-02-05T13:09:22.519Z,116943.30
2023-02-05T13:10:25.075Z,116943.30
2023-02-05T13:11:28.154Z,116943.30
2023-02-05T13:12:30.930Z,116943.30
2023-02-05T13:13:33.795Z,116943.30
2023-02-05T13:14:36.695Z,116943.30
2023-02-05T13:15:39.546Z,116943.30
2023-02-05T13:16:42.897Z,116943.30
2023-02-05T13:17:45.700Z,116943.30
2023-02-05T13:18:48.709Z,116943.30
2023-02-05T13:19:51.562Z,116943.30
2023-02-05T13:20:54.682Z,116943.30
2023-02-05T13:21:57.606Z,116943.30
2023-02-05T13:23:00.760Z,116943.30
2023-02-05T13:24:03.763Z,116943.30
2023-02-05T13:25:06.641Z,116943.30
2023-02-05T13:26:09.533Z,116943.30
2023-02-05T13:27:12.589Z,116943.30
2023-02-05T13:28:15.394Z,116943.30
2023-02-05T13:29:18.346Z,116943.30
2023-02-05T13:30:21.295Z,116943.30
2023-02-05T13:31:24.570Z,116943.30
2023-02-05T13:32:27.598Z,116943.30
2023-02-05T13:33:30.275Z,116943.30
2023-02-05T13:34:32.844Z,116943.30
2023-02-05T13:35:35.756Z,116943.30
2023-02-05T13:36:38.591Z,116943.30
2023-02-05T13:37:41.317Z,116943.30
2023-02-05T13:38:43.933Z,116943.30
2023-02-05T13:39:46.699Z,116943.30
2023-02-05T13:40:49.385Z,116943.30
2023-02-05T13:41:51.942Z,116943.30
2023-02-05T13:42:54.713Z,116943.30
2023-02-05T13:43:57.472Z,116943.30
2023-02-05T13:45:00.052Z,116943.30
2023-02-05T13:46:02.755Z,116943.30
2023-02-05T13:47:05.387Z,116943.30
2023-02-05T13:48:08.153Z,116943.30
2023-02-05T13:49:10.830Z,116943.30
2023-02-05T13:50:13.394Z,116943.30
2023-02-05T13:51:15.956Z,116943.30
2023-02-05T13:52:18.733Z,116943.30
2023-02-05T13:53:22.952Z,116943.30
2023-02-05T13:54:25.829Z,116943.30
2023-02-05T13:55:28.469Z,116943.30
2023-02-05T13:56:31.254Z,116943.30
2023-02-05T13:57:34.252Z,116943.30
2023-02-05T13:58:36.891Z,116943.30
2023-02-05T13:59:39.772Z,116943.30
2023-02-05T14:00:42.637Z,116943.30
2023-02-05T14:01:45.584Z,116943.30
2023-02-05T14:02:48.385Z,116943.30
2023-02-05T14:03:51.664Z,116943.30
2023-02-05T14:04:54.440Z,116943.30
2023-02-05T14:05:57.322Z,116943.30
2023-02-05T14:06:59.977Z,116943.30
2023-02-05T14:08:02.862Z,116943.30
2023-02-05T14:09:06.037Z,116943.30
2023-02-05T14:10:08.990Z,116943.30
2023-02-05T14:11:11.797Z,116943.30
2023-02-05T14:12:14.679Z,116943.30
2023-02-05T14:13:17.434Z,116943.30
2023-02-05T14:14:20.554Z,116943.30
2023-02-05T14:15:23.313Z,116943.30
2023-02-05T14:16:26.174Z,116943.30
2023-02-05T14:17:29.049Z,116943.30
2023-02-05T14:18:31.926Z,116943.30